Latest Weather Observations for Darwin Harbour

IDD60901

Issued at 7:41 am CST Tuesday 23 April 2024 (issued every 10 minutes, with the page automatically refreshed every 10 minutes)

About weather observations | Map of Darwin area stations | Latest observations for Darwin area | Other Formats
Station Details ID: 014072 Name: DARWIN NTC AWS Lat: -12.47 Lon: 130.85 Height: 0.0 m
Data from the previous 72 hours. | See also: Recent months for locations in Northern Territory
Date/Time
CST
Temp
°C
App
Temp
°C
Dew
Point
°C
Rel
Hum
%
Delta-T
°C
Wind Press
QNH
hPa
Press
MSL
hPa
Rain since
9am
mm
Dir  Spd
km/h
Gust
km/h
Spd
kts
Gust
kts
23/07:30am 26.1 - - - - SSE 11 17 6 9 - - -
23/07:00am 26.3 - - - - SSE 9 15 5 8 - - -
23/06:30am 26.4 - - - - SSE 11 15 6 8 - - -
23/06:00am 26.7 - - - - S 13 17 7 9 - - -
23/05:30am 26.2 - - - - SW 15 19 8 10 - - -
23/05:00am 26.3 - - - - SW 20 24 11 13 - - -
23/04:30am 26.6 - - - - SW 22 26 12 14 - - -
23/04:00am 26.9 - - - - SW 19 24 10 13 - - -
23/03:30am 27.3 - - - - SW 19 22 10 12 - - -
23/03:00am 27.6 - - - - SW 15 19 8 10 - - -
23/02:30am 27.5 - - - - SW 13 15 7 8 - - -
23/02:00am 27.6 - - - - SW 17 20 9 11 - - -
23/01:30am 27.4 - - - - SW 15 19 8 10 - - -
23/01:00am 27.5 - - - - SW 13 17 7 9 - - -
23/12:30am 27.5 - - - - SW 11 15 6 8 - - -
23/12:00am 27.6 - - - - SW 9 11 5 6 - - -
 
Date/Time
CST
Temp
°C
App
Temp
°C
Dew
Point
°C
Rel
Hum
%
Delta-T
°C
Wind Press
QNH
hPa
Press
MSL
hPa
Rain since
9am
mm
Dir  Spd
km/h
Gust
km/h
Spd
kts
Gust
kts
22/11:30pm 28.8 - - - - NNE 6 9 3 5 - - -
22/11:00pm 28.5 - - - - NE 6 11 3 6 - - -
22/10:30pm 28.4 - - - - NE 7 13 4 7 - - -
22/10:00pm 28.3 - - - - NE 4 9 2 5 - - -
22/09:30pm 28.3 - - - - ENE 4 7 2 4 - - -
22/09:00pm 28.4 - - - - NE 6 9 3 5 - - -
22/08:30pm 28.5 - - - - NE 7 13 4 7 - - -
22/08:00pm 28.6 - - - - NE 6 11 3 6 - - -
22/07:30pm 28.6 - - - - NE 6 13 3 7 - - -
22/07:00pm 28.7 - - - - NNE 7 15 4 8 - - -
22/06:30pm 29.1 - - - - NNE 9 15 5 8 - - -
22/06:00pm 29.9 - - - - NNW 6 11 3 6 - - -
22/05:30pm 29.8 - - - - NW 7 15 4 8 - - -
22/05:00pm 29.9 - - - - WNW 9 13 5 7 - - -
22/04:30pm 29.8 - - - - WSW 7 13 4 7 - - -
22/04:00pm 30.0 - - - - S 7 9 4 5 - - -
22/03:30pm 29.9 - - - - SSE 9 15 5 8 - - -
22/03:00pm 29.4 - - - - SSE 11 17 6 9 - - -
22/02:30pm 29.2 - - - - SE 11 15 6 8 - - -
22/02:00pm 28.8 - - - - SE 11 15 6 8 - - -
22/01:30pm 28.4 - - - - SSE 9 17 5 9 - - -
22/01:00pm 28.6 - - - - SE 13 19 7 10 - - -
22/12:30pm 27.8 - - - - SE 17 20 9 11 - - -
22/12:00pm 27.4 - - - - ESE 19 24 10 13 - - -
22/11:30am 27.2 - - - - ESE 20 24 11 13 - - -
22/11:00am 27.1 - - - - ESE 26 32 14 17 - - -
22/10:30am 26.8 - - - - SE 24 28 13 15 - - -
22/10:00am 26.6 - - - - SE 22 28 12 15 - - -
22/09:30am 26.0 - - - - ESE 22 30 12 16 - - -
22/09:00am 25.4 - - - - SE 26 33 14 18 - - -
22/08:30am 25.2 - - - - SE 19 26 10 14 - - -
22/08:00am 24.8 - - - - SE 24 30 13 16 - - -
22/07:30am 25.0 - - - - SE 24 30 13 16 - - -
22/07:00am 25.2 - - - - SE 19 26 10 14 - - -
22/06:30am 25.2 - - - - SE 17 26 9 14 - - -
22/06:00am 25.2 - - - - SE 20 28 11 15 - - -
22/05:30am 25.6 - - - - SE 22 30 12 16 - - -
22/05:00am 25.5 - - - - SE 19 26 10 14 - - -
22/04:30am 25.6 - - - - SSE 17 22 9 12 - - -
22/04:00am 25.4 - - - - SE 19 30 10 16 - - -
22/03:30am 25.4 - - - - SE 22 28 12 15 - - -
22/03:00am 25.6 - - - - SE 26 32 14 17 - - -
22/02:30am 25.6 - - - - SE 26 32 14 17 - - -
22/02:00am 25.7 - - - - SE 24 33 13 18 - - -
22/01:30am 26.1 - - - - SE 26 35 14 19 - - -
22/01:00am 26.5 - - - - SE 24 33 13 18 - - -
22/12:30am 26.5 - - - - SSE 20 32 11 17 - - -
22/12:00am 26.7 - - - - SE 22 32 12 17 - - -
 
Date/Time
CST
Temp
°C
App
Temp
°C
Dew
Point
°C
Rel
Hum
%
Delta-T
°C
Wind Press
QNH
hPa
Press
MSL
hPa
Rain since
9am
mm
Dir  Spd
km/h
Gust
km/h
Spd
kts
Gust
kts
21/11:30pm 27.2 - - - - SSE 19 28 10 15 - - -
21/11:00pm 27.8 - - - - SSE 20 28 11 15 - - -
21/10:30pm 28.4 - - - - SSE 28 35 15 19 - - -
21/10:00pm 28.9 - - - - SSE 28 35 15 19 - - -
21/09:30pm 29.3 - - - - SSE 26 35 14 19 - - -
21/09:00pm 29.6 - - - - S 26 32 14 17 - - -
21/08:30pm 29.8 - - - - S 19 20 10 11 - - -
21/08:00pm 30.2 - - - - S 15 17 8 9 - - -
21/07:30pm 30.2 - - - - SSE 9 13 5 7 - - -
21/07:00pm 30.4 - - - - SSE 11 15 6 8 - - -
21/06:30pm 30.5 - - - - SSE 15 22 8 12 - - -
21/06:00pm 30.6 - - - - SSE 17 20 9 11 - - -
21/05:30pm 30.6 - - - - S 15 17 8 9 - - -
21/05:00pm 30.7 - - - - SSE 9 19 5 10 - - -
21/04:30pm 30.7 - - - - SE 11 19 6 10 - - -
21/04:00pm 30.4 - - - - ESE 15 19 8 10 - - -
21/03:30pm 30.3 - - - - ESE 17 22 9 12 - - -
21/03:00pm 30.3 - - - - ESE 19 24 10 13 - - -
21/02:30pm 30.1 - - - - ESE 15 20 8 11 - - -
21/02:00pm 29.7 - - - - ESE 17 24 9 13 - - -
21/01:30pm 29.5 - - - - ESE 22 28 12 15 - - -
21/01:00pm 29.5 - - - - ESE 22 30 12 16 - - -
21/12:30pm 28.9 - - - - ESE 24 30 13 16 - - -
21/12:00pm 28.4 - - - - ESE 22 30 12 16 - - -
21/11:30am 28.1 - - - - E 32 41 17 22 - - -
21/11:00am 27.8 - - - - E 32 43 17 23 - - -
21/10:30am 26.9 - - - - ESE 28 37 15 20 - - -
21/10:00am 26.6 - - - - ESE 28 35 15 19 - - -
21/09:30am 25.8 - - - - SE 28 37 15 20 - - -
21/09:00am 24.9 - - - - SE 28 35 15 19 - - -
21/08:30am 24.4 - - - - SE 26 35 14 19 - - -
21/08:00am 24.2 - - - - SE 26 35 14 19 - - -
21/07:30am 24.3 - - - - SE 28 35 15 19 - - -
21/07:00am 24.6 - - - - SE 30 43 16 23 - - -
21/06:30am 24.7 - - - - SE 24 37 13 20 - - -
21/06:00am 25.0 - - - - SSE 19 28 10 15 - - -
21/05:30am 25.1 - - - - SSE 22 35 12 19 - - -
21/05:00am 25.6 - - - - SE 22 32 12 17 - - -
21/04:30am 25.8 - - - - SE 22 35 12 19 - - -
21/04:00am 26.0 - - - - SE 22 33 12 18 - - -
21/03:30am 25.9 - - - - SE 20 30 11 16 - - -
21/03:00am 26.1 - - - - SE 19 28 10 15 - - -
21/02:30am 26.3 - - - - SSE 13 20 7 11 - - -
21/02:00am 26.6 - - - - SE 19 24 10 13 - - -
21/01:30am 26.9 - - - - SE 22 28 12 15 - - -
21/01:00am 27.3 - - - - ESE 24 33 13 18 - - -
21/12:30am 27.2 - - - - ESE 24 28 13 15 - - -
21/12:00am 27.4 - - - - SE 19 22 10 12 - - -
 
Date/Time
CST
Temp
°C
App
Temp
°C
Dew
Point
°C
Rel
Hum
%
Delta-T
°C
Wind Press
QNH
hPa
Press
MSL
hPa
Rain since
9am
mm
Dir  Spd
km/h
Gust
km/h
Spd
kts
Gust
kts
20/11:30pm 27.9 - - - - SE 22 28 12 15 - - -
20/11:00pm 28.2 - - - - SE 20 26 11 14 - - -
20/10:30pm 28.6 - - - - SE 19 24 10 13 - - -
20/10:00pm 28.8 - - - - ESE 15 19 8 10 - - -
20/09:30pm 29.4 - - - - SE 15 19 8 10 - - -
20/09:00pm 30.0 - - - - SE 17 20 9 11 - - -
20/08:30pm 30.2 - - - - SE 15 19 8 10 - - -
20/08:00pm 30.5 - - - - SE 17 20 9 11 - - -
20/07:30pm 30.6 - - - - SSE 13 19 7 10 - - -
20/07:00pm 31.2 - - - - SSE 13 19 7 10 - - -
20/06:30pm 31.5 - - - - SE 15 19 8 10 - - -
20/06:00pm 31.9 - - - - SE 17 24 9 13 - - -
20/05:30pm 31.9 - - - - ESE 20 24 11 13 - - -
20/05:00pm 31.9 - - - - SE 20 28 11 15 - - -
20/04:30pm 32.0 - - - - ESE 19 28 10 15 - - -
20/04:00pm 31.9 - - - - SE 17 24 9 13 - - -
20/03:30pm 31.6 - - - - E 22 30 12 16 - - -
20/03:00pm 31.5 - - - - ESE 22 30 12 16 - - -
20/02:30pm 31.2 - - - - ESE 28 35 15 19 - - -
20/02:00pm 31.0 - - - - ESE 26 33 14 18 - - -
20/01:30pm 30.8 - - - - ESE 20 28 11 15 - - -
20/01:00pm 30.5 - - - - ESE 17 26 9 14 - - -
20/12:30pm 30.3 - - - - ESE 20 28 11 15 - - -
20/12:00pm 29.6 - - - - ESE 22 30 12 16 - - -
20/11:30am 29.0 - - - - ESE 24 32 13 17 - - -
20/11:00am 28.5 - - - - SE 28 33 15 18 - - -
20/10:30am 28.1 - - - - ESE 30 35 16 19 - - -
20/10:00am 27.8 - - - - ESE 33 41 18 22 - - -
20/09:30am 27.1 - - - - SE 32 41 17 22 - - -
20/09:00am 26.3 - - - - SE 32 37 17 20 - - -
20/08:30am 25.7 - - - - SE 26 35 14 19 - - -
20/08:00am 25.5 - - - - SE 26 32 14 17 - - -

Latest Capital City Observations: Canberra | Sydney | Melbourne | Brisbane | Adelaide | Perth | Hobart | Darwin

Other formats

Comma delimited format used in spreadsheet applications
http://www.bom.gov.au/fwo/IDD60901/IDD60901.95122.axf

JavaScript Object Notation format (JSON) in row-major order
http://www.bom.gov.au/fwo/IDD60901/IDD60901.95122.json

Data quality

Most of these data are generated automatically and are frequently updated. Quality checks on data are not normally performed. It is possible for incorrect values to appear. Refer to information at About Latest Weather Observations and please check the disclaimer before using these data.